sensor_id;sensor_type;location;lat;lon;timestamp;P1;P2;P0
30342;PMS5003;17145;49.902;8.680;2023-04-15T00:01:44;7;6;
30342;PMS5003;17145;49.902;8.680;2023-04-15T00:04:12;7;6;
30342;PMS5003;17145;49.902;8.680;2023-04-15T00:06:39;9;9;
30342;PMS5003;17145;49.902;8.680;2023-04-15T00:09:08;10;9;
30342;PMS5003;17145;49.902;8.680;2023-04-15T00:11:38;7;6;
30342;PMS5003;17145;49.902;8.680;2023-04-15T00:14:06;7;7;
30342;PMS5003;17145;49.902;8.680;2023-04-15T00:16:34;5;5;
30342;PMS5003;17145;49.902;8.680;2023-04-15T00:19:01;7;7;
30342;PMS5003;17145;49.902;8.680;2023-04-15T00:21:29;6;6;
30342;PMS5003;17145;49.902;8.680;2023-04-15T00:23:56;5;5;
30342;PMS5003;17145;49.902;8.680;2023-04-15T00:26:23;7;6;
30342;PMS5003;17145;49.902;8.680;2023-04-15T00:28:51;10;7;
30342;PMS5003;17145;49.902;8.680;2023-04-15T00:31:18;6;6;
30342;PMS5003;17145;49.902;8.680;2023-04-15T00:33:46;6;6;
30342;PMS5003;17145;49.902;8.680;2023-04-15T00:36:13;6;6;
30342;PMS5003;17145;49.902;8.680;2023-04-15T00:38:41;9;9;
30342;PMS5003;17145;49.902;8.680;2023-04-15T00:41:10;10;9;
30342;PMS5003;17145;49.902;8.680;2023-04-15T00:43:37;6;6;
30342;PMS5003;17145;49.902;8.680;2023-04-15T00:46:05;6;6;
30342;PMS5003;17145;49.902;8.680;2023-04-15T00:48:33;7;6;
30342;PMS5003;17145;49.902;8.680;2023-04-15T00:51:02;7;7;
30342;PMS5003;17145;49.902;8.680;2023-04-15T00:53:31;10;9;
30342;PMS5003;17145;49.902;8.680;2023-04-15T00:56:01;10;10;
30342;PMS5003;17145;49.902;8.680;2023-04-15T00:58:28;6;6;
30342;PMS5003;17145;49.902;8.680;2023-04-15T01:00:56;5;5;
30342;PMS5003;17145;49.902;8.680;2023-04-15T01:03:25;7;7;
30342;PMS5003;17145;49.902;8.680;2023-04-15T01:05:53;6;6;
30342;PMS5003;17145;49.902;8.680;2023-04-15T01:08:22;6;6;
30342;PMS5003;17145;49.902;8.680;2023-04-15T01:10:52;6;6;
30342;PMS5003;17145;49.902;8.680;2023-04-15T01:13:20;9;7;
30342;PMS5003;17145;49.902;8.680;2023-04-15T01:15:49;6;6;
30342;PMS5003;17145;49.902;8.680;2023-04-15T01:18:17;7;6;
30342;PMS5003;17145;49.902;8.680;2023-04-15T01:20:45;6;6;
30342;PMS5003;17145;49.902;8.680;2023-04-15T01:23:12;9;7;
30342;PMS5003;17145;49.902;8.680;2023-04-15T01:25:40;7;7;
30342;PMS5003;17145;49.902;8.680;2023-04-15T01:28:09;5;5;
30342;PMS5003;17145;49.902;8.680;2023-04-15T01:30:37;9;9;
30342;PMS5003;17145;49.902;8.680;2023-04-15T01:33:04;6;6;
30342;PMS5003;17145;49.902;8.680;2023-04-15T01:35:32;10;7;
30342;PMS5003;17145;49.902;8.680;2023-04-15T01:38:01;7;7;
30342;PMS5003;17145;49.902;8.680;2023-04-15T01:40:31;6;6;
30342;PMS5003;17145;49.902;8.680;2023-04-15T01:42:59;9;9;
30342;PMS5003;17145;49.902;8.680;2023-04-15T01:45:27;9;7;
30342;PMS5003;17145;49.902;8.680;2023-04-15T01:47:54;7;7;
30342;PMS5003;17145;49.902;8.680;2023-04-15T01:50:21;7;7;
30342;PMS5003;17145;49.902;8.680;2023-04-15T01:52:49;10;7;
30342;PMS5003;17145;49.902;8.680;2023-04-15T01:55:17;10;9;
30342;PMS5003;17145;49.902;8.680;2023-04-15T01:57:44;10;9;
30342;PMS5003;17145;49.902;8.680;2023-04-15T02:00:12;6;6;
30342;PMS5003;17145;49.902;8.680;2023-04-15T02:02:40;11;10;
30342;PMS5003;17145;49.902;8.680;2023-04-15T02:05:07;7;7;
30342;PMS5003;17145;49.902;8.680;2023-04-15T02:07:35;7;6;
30342;PMS5003;17145;49.902;8.680;2023-04-15T02:10:03;6;5;
30342;PMS5003;17145;49.902;8.680;2023-04-15T02:12:32;6;6;
30342;PMS5003;17145;49.902;8.680;2023-04-15T02:15:00;9;6;
30342;PMS5003;17145;49.902;8.680;2023-04-15T02:17:28;10;9;
30342;PMS5003;17145;49.902;8.680;2023-04-15T02:19:56;10;9;
30342;PMS5003;17145;49.902;8.680;2023-04-15T02:22:24;7;6;
30342;PMS5003;17145;49.902;8.680;2023-04-15T02:24:51;9;7;
30342;PMS5003;17145;49.902;8.680;2023-04-15T02:27:19;7;7;
30342;PMS5003;17145;49.902;8.680;2023-04-15T02:29:46;10;7;
30342;PMS5003;17145;49.902;8.680;2023-04-15T02:32:15;7;7;
30342;PMS5003;17145;49.902;8.680;2023-04-15T02:34:43;5;5;
30342;PMS5003;17145;49.902;8.680;2023-04-15T02:37:11;5;5;
30342;PMS5003;17145;49.902;8.680;2023-04-15T02:39:39;7;5;
30342;PMS5003;17145;49.902;8.680;2023-04-15T02:42:06;5;5;
30342;PMS5003;17145;49.902;8.680;2023-04-15T02:44:34;6;6;
30342;PMS5003;17145;49.902;8.680;2023-04-15T02:47:02;7;6;
30342;PMS5003;17145;49.902;8.680;2023-04-15T02:49:30;6;6;
30342;PMS5003;17145;49.902;8.680;2023-04-15T02:51:57;5;5;
30342;PMS5003;17145;49.902;8.680;2023-04-15T02:54:25;4;4;
30342;PMS5003;17145;49.902;8.680;2023-04-15T02:56:53;2;2;
30342;PMS5003;17145;49.902;8.680;2023-04-15T02:59:21;3;2;
30342;PMS5003;17145;49.902;8.680;2023-04-15T03:01:49;3;3;
30342;PMS5003;17145;49.902;8.680;2023-04-15T03:04:18;3;3;
30342;PMS5003;17145;49.902;8.680;2023-04-15T03:06:45;5;4;
30342;PMS5003;17145;49.902;8.680;2023-04-15T03:09:12;4;4;
30342;PMS5003;17145;49.902;8.680;2023-04-15T03:11:39;5;5;
30342;PMS5003;17145;49.902;8.680;2023-04-15T03:14:07;5;5;
30342;PMS5003;17145;49.902;8.680;2023-04-15T03:16:34;4;4;
30342;PMS5003;17145;49.902;8.680;2023-04-15T03:19:02;5;5;
30342;PMS5003;17145;49.902;8.680;2023-04-15T03:21:29;6;5;
30342;PMS5003;17145;49.902;8.680;2023-04-15T03:23:56;6;6;
30342;PMS5003;17145;49.902;8.680;2023-04-15T03:26:25;6;6;
30342;PMS5003;17145;49.902;8.680;2023-04-15T03:28:54;5;5;
30342;PMS5003;17145;49.902;8.680;2023-04-15T03:31:22;5;5;
30342;PMS5003;17145;49.902;8.680;2023-04-15T03:33:50;6;6;
30342;PMS5003;17145;49.902;8.680;2023-04-15T03:36:18;4;4;
30342;PMS5003;17145;49.902;8.680;2023-04-15T03:38:45;5;5;
30342;PMS5003;17145;49.902;8.680;2023-04-15T03:41:13;4;4;
30342;PMS5003;17145;49.902;8.680;2023-04-15T03:43:40;5;5;
30342;PMS5003;17145;49.902;8.680;2023-04-15T03:46:08;3;3;
30342;PMS5003;17145;49.902;8.680;2023-04-15T03:48:35;3;3;
30342;PMS5003;17145;49.902;8.680;2023-04-15T03:51:02;5;5;
30342;PMS5003;17145;49.902;8.680;2023-04-15T03:53:30;4;4;
30342;PMS5003;17145;49.902;8.680;2023-04-15T03:55:57;4;4;
30342;PMS5003;17145;49.902;8.680;2023-04-15T03:58:25;5;4;
30342;PMS5003;17145;49.902;8.680;2023-04-15T04:00:53;4;4;
30342;PMS5003;17145;49.902;8.680;2023-04-15T04:03:21;4;3;
30342;PMS5003;17145;49.902;8.680;2023-04-15T04:05:50;4;4;
30342;PMS5003;17145;49.902;8.680;2023-04-15T04:08:18;3;3;
30342;PMS5003;17145;49.902;8.680;2023-04-15T04:10:45;3;2;
30342;PMS5003;17145;49.902;8.680;2023-04-15T04:13:13;2;2;
30342;PMS5003;17145;49.902;8.680;2023-04-15T04:15:41;2;2;
30342;PMS5003;17145;49.902;8.680;2023-04-15T04:18:08;2;2;
30342;PMS5003;17145;49.902;8.680;2023-04-15T04:20:36;2;2;
30342;PMS5003;17145;49.902;8.680;2023-04-15T04:23:03;1;1;
30342;PMS5003;17145;49.902;8.680;2023-04-15T04:25:31;2;2;
30342;PMS5003;17145;49.902;8.680;2023-04-15T04:27:58;3;3;
30342;PMS5003;17145;49.902;8.680;2023-04-15T04:30:25;3;3;
30342;PMS5003;17145;49.902;8.680;2023-04-15T04:32:53;1;1;
30342;PMS5003;17145;49.902;8.680;2023-04-15T04:35:20;2;2;
30342;PMS5003;17145;49.902;8.680;2023-04-15T04:37:48;2;2;
30342;PMS5003;17145;49.902;8.680;2023-04-15T04:40:16;2;2;
30342;PMS5003;17145;49.902;8.680;2023-04-15T04:42:43;3;2;
30342;PMS5003;17145;49.902;8.680;2023-04-15T04:45:11;2;2;
30342;PMS5003;17145;49.902;8.680;2023-04-15T04:47:39;2;2;
30342;PMS5003;17145;49.902;8.680;2023-04-15T04:50:08;2;2;
30342;PMS5003;17145;49.902;8.680;2023-04-15T04:52:35;2;2;
30342;PMS5003;17145;49.902;8.680;2023-04-15T04:55:04;2;2;
30342;PMS5003;17145;49.902;8.680;2023-04-15T04:57:32;3;3;
30342;PMS5003;17145;49.902;8.680;2023-04-15T04:59:59;2;2;
30342;PMS5003;17145;49.902;8.680;2023-04-15T05:02:27;4;4;
30342;PMS5003;17145;49.902;8.680;2023-04-15T05:04:54;3;3;
30342;PMS5003;17145;49.902;8.680;2023-04-15T05:07:22;2;2;
30342;PMS5003;17145;49.902;8.680;2023-04-15T05:09:50;2;2;
30342;PMS5003;17145;49.902;8.680;2023-04-15T05:12:18;2;2;
30342;PMS5003;17145;49.902;8.680;2023-04-15T05:14:46;1;1;
30342;PMS5003;17145;49.902;8.680;2023-04-15T05:17:13;2;2;
30342;PMS5003;17145;49.902;8.680;2023-04-15T05:19:41;1;1;
30342;PMS5003;17145;49.902;8.680;2023-04-15T05:22:08;2;2;
30342;PMS5003;17145;49.902;8.680;2023-04-15T05:24:36;2;2;
30342;PMS5003;17145;49.902;8.680;2023-04-15T05:27:03;1;1;
30342;PMS5003;17145;49.902;8.680;2023-04-15T05:29:31;1;1;
30342;PMS5003;17145;49.902;8.680;2023-04-15T05:31:59;1;1;
30342;PMS5003;17145;49.902;8.680;2023-04-15T05:34:26;1;1;
30342;PMS5003;17145;49.902;8.680;2023-04-15T05:36:54;1;1;
30342;PMS5003;17145;49.902;8.680;2023-04-15T05:39:21;2;2;
30342;PMS5003;17145;49.902;8.680;2023-04-15T05:41:48;1;1;
30342;PMS5003;17145;49.902;8.680;2023-04-15T05:44:16;1;1;
30342;PMS5003;17145;49.902;8.680;2023-04-15T05:46:44;0;0;
30342;PMS5003;17145;49.902;8.680;2023-04-15T05:49:11;2;2;
30342;PMS5003;17145;49.902;8.680;2023-04-15T05:51:39;1;1;
30342;PMS5003;17145;49.902;8.680;2023-04-15T05:54:07;1;1;
30342;PMS5003;17145;49.902;8.680;2023-04-15T05:56:35;1;1;
30342;PMS5003;17145;49.902;8.680;2023-04-15T05:59:02;0;0;
30342;PMS5003;17145;49.902;8.680;2023-04-15T06:01:30;1;1;
30342;PMS5003;17145;49.902;8.680;2023-04-15T06:03:59;0;0;
30342;PMS5003;17145;49.902;8.680;2023-04-15T06:06:27;1;1;
30342;PMS5003;17145;49.902;8.680;2023-04-15T06:08:55;0;0;
30342;PMS5003;17145;49.902;8.680;2023-04-15T06:11:24;1;1;
30342;PMS5003;17145;49.902;8.680;2023-04-15T06:13:52;1;1;
30342;PMS5003;17145;49.902;8.680;2023-04-15T06:16:19;1;1;
30342;PMS5003;17145;49.902;8.680;2023-04-15T06:18:47;1;1;
30342;PMS5003;17145;49.902;8.680;2023-04-15T06:21:14;2;2;
30342;PMS5003;17145;49.902;8.680;2023-04-15T06:23:43;1;1;
30342;PMS5003;17145;49.902;8.680;2023-04-15T06:26:10;1;1;
30342;PMS5003;17145;49.902;8.680;2023-04-15T06:28:38;2;2;
30342;PMS5003;17145;49.902;8.680;2023-04-15T06:31:05;1;1;
30342;PMS5003;17145;49.902;8.680;2023-04-15T06:33:33;1;0;
30342;PMS5003;17145;49.902;8.680;2023-04-15T06:36:00;0;0;
30342;PMS5003;17145;49.902;8.680;2023-04-15T06:38:27;5;4;
30342;PMS5003;17145;49.902;8.680;2023-04-15T06:40:55;2;2;
30342;PMS5003;17145;49.902;8.680;2023-04-15T06:43:22;4;4;
30342;PMS5003;17145;49.902;8.680;2023-04-15T06:45:50;1;1;
30342;PMS5003;17145;49.902;8.680;2023-04-15T06:48:17;2;2;
30342;PMS5003;17145;49.902;8.680;2023-04-15T06:50:45;2;1;
30342;PMS5003;17145;49.902;8.680;2023-04-15T06:53:12;1;1;
30342;PMS5003;17145;49.902;8.680;2023-04-15T06:55:40;1;1;
30342;PMS5003;17145;49.902;8.680;2023-04-15T06:58:07;1;1;
30342;PMS5003;17145;49.902;8.680;2023-04-15T07:00:34;1;1;
30342;PMS5003;17145;49.902;8.680;2023-04-15T07:03:02;1;1;
30342;PMS5003;17145;49.902;8.680;2023-04-15T07:05:29;4;4;
30342;PMS5003;17145;49.902;8.680;2023-04-15T07:07:57;9;9;
30342;PMS5003;17145;49.902;8.680;2023-04-15T07:10:25;1;1;
30342;PMS5003;17145;49.902;8.680;2023-04-15T07:12:52;1;1;
30342;PMS5003;17145;49.902;8.680;2023-04-15T07:15:19;2;1;
30342;PMS5003;17145;49.902;8.680;2023-04-15T07:17:47;2;2;
30342;PMS5003;17145;49.902;8.680;2023-04-15T07:20:15;2;2;
30342;PMS5003;17145;49.902;8.680;2023-04-15T07:22:42;2;2;
30342;PMS5003;17145;49.902;8.680;2023-04-15T07:25:10;2;2;
30342;PMS5003;17145;49.902;8.680;2023-04-15T07:27:37;2;2;
30342;PMS5003;17145;49.902;8.680;2023-04-15T07:30:05;2;2;
30342;PMS5003;17145;49.902;8.680;2023-04-15T07:32:33;2;2;
30342;PMS5003;17145;49.902;8.680;2023-04-15T07:35:02;2;2;
30342;PMS5003;17145;49.902;8.680;2023-04-15T07:37:29;2;2;
30342;PMS5003;17145;49.902;8.680;2023-04-15T07:39:57;2;2;
30342;PMS5003;17145;49.902;8.680;2023-04-15T07:42:26;2;2;
30342;PMS5003;17145;49.902;8.680;2023-04-15T07:44:56;2;2;
30342;PMS5003;17145;49.902;8.680;2023-04-15T07:47:25;3;3;
30342;PMS5003;17145;49.902;8.680;2023-04-15T07:49:55;6;6;
30342;PMS5003;17145;49.902;8.680;2023-04-15T07:52:23;4;4;
30342;PMS5003;17145;49.902;8.680;2023-04-15T07:54:50;4;4;
30342;PMS5003;17145;49.902;8.680;2023-04-15T07:57:18;3;3;
30342;PMS5003;17145;49.902;8.680;2023-04-15T07:59:46;3;3;
30342;PMS5003;17145;49.902;8.680;2023-04-15T08:02:14;4;4;
30342;PMS5003;17145;49.902;8.680;2023-04-15T08:04:41;5;5;
30342;PMS5003;17145;49.902;8.680;2023-04-15T08:07:08;5;4;
30342;PMS5003;17145;49.902;8.680;2023-04-15T08:09:36;12;11;
30342;PMS5003;17145;49.902;8.680;2023-04-15T08:12:04;1;1;
30342;PMS5003;17145;49.902;8.680;2023-04-15T08:14:32;1;1;
30342;PMS5003;17145;49.902;8.680;2023-04-15T08:16:59;1;1;
30342;PMS5003;17145;49.902;8.680;2023-04-15T08:19:26;1;1;
30342;PMS5003;17145;49.902;8.680;2023-04-15T08:21:54;0;0;
30342;PMS5003;17145;49.902;8.680;2023-04-15T08:24:21;0;0;
30342;PMS5003;17145;49.902;8.680;2023-04-15T08:26:49;1;1;
30342;PMS5003;17145;49.902;8.680;2023-04-15T08:29:17;0;0;
30342;PMS5003;17145;49.902;8.680;2023-04-15T08:31:44;0;0;
30342;PMS5003;17145;49.902;8.680;2023-04-15T08:34:12;1;1;
30342;PMS5003;17145;49.902;8.680;2023-04-15T08:36:41;1;1;
30342;PMS5003;17145;49.902;8.680;2023-04-15T08:39:08;1;1;
30342;PMS5003;17145;49.902;8.680;2023-04-15T08:41:38;2;1;
30342;PMS5003;17145;49.902;8.680;2023-04-15T08:44:11;1;1;
30342;PMS5003;17145;49.902;8.680;2023-04-15T08:46:40;1;1;
30342;PMS5003;17145;49.902;8.680;2023-04-15T08:49:09;1;1;
30342;PMS5003;17145;49.902;8.680;2023-04-15T08:51:38;3;1;
30342;PMS5003;17145;49.902;8.680;2023-04-15T08:54:07;2;1;
30342;PMS5003;17145;49.902;8.680;2023-04-15T08:56:35;1;1;
30342;PMS5003;17145;49.902;8.680;2023-04-15T08:59:04;1;1;
30342;PMS5003;17145;49.902;8.680;2023-04-15T09:01:32;1;1;
30342;PMS5003;17145;49.902;8.680;2023-04-15T09:03:59;2;1;
30342;PMS5003;17145;49.902;8.680;2023-04-15T09:06:29;2;2;
30342;PMS5003;17145;49.902;8.680;2023-04-15T09:08:56;3;3;
30342;PMS5003;17145;49.902;8.680;2023-04-15T09:11:24;2;2;
30342;PMS5003;17145;49.902;8.680;2023-04-15T09:13:51;3;3;
30342;PMS5003;17145;49.902;8.680;2023-04-15T09:16:18;4;3;
30342;PMS5003;17145;49.902;8.680;2023-04-15T09:18:46;2;2;
30342;PMS5003;17145;49.902;8.680;2023-04-15T09:21:14;3;2;
30342;PMS5003;17145;49.902;8.680;2023-04-15T09:29:01;3;2;
30342;PMS5003;17145;49.902;8.680;2023-04-15T09:31:30;2;2;
30342;PMS5003;17145;49.902;8.680;2023-04-15T09:33:57;2;1;
30342;PMS5003;17145;49.902;8.680;2023-04-15T09:36:25;1;1;
30342;PMS5003;17145;49.902;8.680;2023-04-15T09:38:53;3;2;
30342;PMS5003;17145;49.902;8.680;2023-04-15T09:41:23;2;2;
30342;PMS5003;17145;49.902;8.680;2023-04-15T09:43:51;2;2;
30342;PMS5003;17145;49.902;8.680;2023-04-15T09:46:18;2;2;
30342;PMS5003;17145;49.902;8.680;2023-04-15T09:48:46;1;1;
30342;PMS5003;17145;49.902;8.680;2023-04-15T09:51:18;1;1;
30342;PMS5003;17145;49.902;8.680;2023-04-15T09:53:55;1;1;
30342;PMS5003;17145;49.902;8.680;2023-04-15T09:56:22;2;2;
30342;PMS5003;17145;49.902;8.680;2023-04-15T09:58:58;2;2;
30342;PMS5003;17145;49.902;8.680;2023-04-15T10:01:25;1;1;
30342;PMS5003;17145;49.902;8.680;2023-04-15T10:03:53;1;1;
30342;PMS5003;17145;49.902;8.680;2023-04-15T10:06:24;1;1;
30342;PMS5003;17145;49.902;8.680;2023-04-15T10:08:52;1;1;
30342;PMS5003;17145;49.902;8.680;2023-04-15T10:11:20;1;1;
30342;PMS5003;17145;49.902;8.680;2023-04-15T10:13:50;2;1;
30342;PMS5003;17145;49.902;8.680;2023-04-15T10:16:18;1;1;
30342;PMS5003;17145;49.902;8.680;2023-04-15T10:18:47;1;1;
30342;PMS5003;17145;49.902;8.680;2023-04-15T10:21:20;1;1;
30342;PMS5003;17145;49.902;8.680;2023-04-15T10:23:48;1;1;
30342;PMS5003;17145;49.902;8.680;2023-04-15T10:26:16;1;1;
30342;PMS5003;17145;49.902;8.680;2023-04-15T10:28:44;1;1;
30342;PMS5003;17145;49.902;8.680;2023-04-15T10:31:11;2;2;
30342;PMS5003;17145;49.902;8.680;2023-04-15T10:33:40;2;2;
30342;PMS5003;17145;49.902;8.680;2023-04-15T10:36:09;2;2;
30342;PMS5003;17145;49.902;8.680;2023-04-15T10:38:39;1;1;
30342;PMS5003;17145;49.902;8.680;2023-04-15T10:41:13;2;2;
30342;PMS5003;17145;49.902;8.680;2023-04-15T10:43:47;2;2;
30342;PMS5003;17145;49.902;8.680;2023-04-15T10:46:17;1;1;
30342;PMS5003;17145;49.902;8.680;2023-04-15T10:48:47;2;2;
30342;PMS5003;17145;49.902;8.680;2023-04-15T10:51:16;2;2;
30342;PMS5003;17145;49.902;8.680;2023-04-15T10:53:56;2;2;
30342;PMS5003;17145;49.902;8.680;2023-04-15T10:56:26;2;1;
30342;PMS5003;17145;49.902;8.680;2023-04-15T10:58:54;1;1;
30342;PMS5003;17145;49.902;8.680;2023-04-15T11:04:06;2;2;
30342;PMS5003;17145;49.902;8.680;2023-04-15T11:09:11;1;1;
30342;PMS5003;17145;49.902;8.680;2023-04-15T11:14:31;2;1;
30342;PMS5003;17145;49.902;8.680;2023-04-15T11:17:00;1;1;
30342;PMS5003;17145;49.902;8.680;2023-04-15T11:22:07;1;1;
30342;PMS5003;17145;49.902;8.680;2023-04-15T11:24:35;2;2;
30342;PMS5003;17145;49.902;8.680;2023-04-15T11:27:02;2;1;
30342;PMS5003;17145;49.902;8.680;2023-04-15T11:29:29;2;2;
30342;PMS5003;17145;49.902;8.680;2023-04-15T11:32:04;3;2;
30342;PMS5003;17145;49.902;8.680;2023-04-15T11:34:32;2;2;
30342;PMS5003;17145;49.902;8.680;2023-04-15T11:37:02;2;2;
30342;PMS5003;17145;49.902;8.680;2023-04-15T11:39:30;2;1;
30342;PMS5003;17145;49.902;8.680;2023-04-15T11:41:58;1;1;
30342;PMS5003;17145;49.902;8.680;2023-04-15T11:44:26;0;0;
30342;PMS5003;17145;49.902;8.680;2023-04-15T11:46:54;1;1;
30342;PMS5003;17145;49.902;8.680;2023-04-15T11:49:25;3;2;
30342;PMS5003;17145;49.902;8.680;2023-04-15T11:51:52;1;1;
30342;PMS5003;17145;49.902;8.680;2023-04-15T11:54:20;1;1;
30342;PMS5003;17145;49.902;8.680;2023-04-15T11:56:49;1;1;
30342;PMS5003;17145;49.902;8.680;2023-04-15T11:59:17;3;3;
30342;PMS5003;17145;49.902;8.680;2023-04-15T12:01:44;1;1;
30342;PMS5003;17145;49.902;8.680;2023-04-15T12:04:12;2;1;
30342;PMS5003;17145;49.902;8.680;2023-04-15T12:06:40;1;1;
30342;PMS5003;17145;49.902;8.680;2023-04-15T12:09:08;1;1;
30342;PMS5003;17145;49.902;8.680;2023-04-15T12:11:39;1;1;
30342;PMS5003;17145;49.902;8.680;2023-04-15T12:14:09;1;1;
30342;PMS5003;17145;49.902;8.680;2023-04-15T12:16:39;1;1;
30342;PMS5003;17145;49.902;8.680;2023-04-15T12:19:08;1;1;
30342;PMS5003;17145;49.902;8.680;2023-04-15T12:21:38;1;1;
30342;PMS5003;17145;49.902;8.680;2023-04-15T12:24:08;1;1;
30342;PMS5003;17145;49.902;8.680;2023-04-15T12:26:41;1;1;
30342;PMS5003;17145;49.902;8.680;2023-04-15T12:29:11;1;1;
30342;PMS5003;17145;49.902;8.680;2023-04-15T12:31:46;1;1;
30342;PMS5003;17145;49.902;8.680;2023-04-15T12:34:15;2;1;
30342;PMS5003;17145;49.902;8.680;2023-04-15T12:36:43;1;1;
30342;PMS5003;17145;49.902;8.680;2023-04-15T12:39:11;1;1;
30342;PMS5003;17145;49.902;8.680;2023-04-15T12:41:39;1;1;
30342;PMS5003;17145;49.902;8.680;2023-04-15T12:44:06;1;1;
30342;PMS5003;17145;49.902;8.680;2023-04-15T12:46:34;1;1;
30342;PMS5003;17145;49.902;8.680;2023-04-15T12:49:01;1;1;
30342;PMS5003;17145;49.902;8.680;2023-04-15T12:51:29;0;0;
30342;PMS5003;17145;49.902;8.680;2023-04-15T12:53:56;2;2;
30342;PMS5003;17145;49.902;8.680;2023-04-15T12:56:24;1;1;
30342;PMS5003;17145;49.902;8.680;2023-04-15T12:58:51;0;0;
30342;PMS5003;17145;49.902;8.680;2023-04-15T13:01:19;1;1;
30342;PMS5003;17145;49.902;8.680;2023-04-15T13:03:46;1;1;
30342;PMS5003;17145;49.902;8.680;2023-04-15T13:06:14;1;1;
30342;PMS5003;17145;49.902;8.680;2023-04-15T13:08:42;1;1;
30342;PMS5003;17145;49.902;8.680;2023-04-15T13:11:09;1;1;
30342;PMS5003;17145;49.902;8.680;2023-04-15T13:13:37;1;1;
30342;PMS5003;17145;49.902;8.680;2023-04-15T13:16:04;1;1;
30342;PMS5003;17145;49.902;8.680;2023-04-15T13:18:32;1;1;
30342;PMS5003;17145;49.902;8.680;2023-04-15T13:21:00;1;1;
30342;PMS5003;17145;49.902;8.680;2023-04-15T13:23:27;0;0;
30342;PMS5003;17145;49.902;8.680;2023-04-15T13:25:55;1;1;
30342;PMS5003;17145;49.902;8.680;2023-04-15T13:28:22;1;1;
30342;PMS5003;17145;49.902;8.680;2023-04-15T13:30:50;1;1;
30342;PMS5003;17145;49.902;8.680;2023-04-15T13:33:18;1;1;
30342;PMS5003;17145;49.902;8.680;2023-04-15T13:35:45;1;1;
30342;PMS5003;17145;49.902;8.680;2023-04-15T13:38:13;1;1;
30342;PMS5003;17145;49.902;8.680;2023-04-15T13:40:40;2;1;
30342;PMS5003;17145;49.902;8.680;2023-04-15T13:43:07;1;1;
30342;PMS5003;17145;49.902;8.680;2023-04-15T13:45:35;1;1;
30342;PMS5003;17145;49.902;8.680;2023-04-15T13:48:02;1;1;
30342;PMS5003;17145;49.902;8.680;2023-04-15T13:50:30;1;1;
30342;PMS5003;17145;49.902;8.680;2023-04-15T13:52:58;1;1;
30342;PMS5003;17145;49.902;8.680;2023-04-15T13:55:25;1;1;
30342;PMS5003;17145;49.902;8.680;2023-04-15T13:57:52;1;1;
30342;PMS5003;17145;49.902;8.680;2023-04-15T14:00:20;1;0;
30342;PMS5003;17145;49.902;8.680;2023-04-15T14:02:47;1;1;
30342;PMS5003;17145;49.902;8.680;2023-04-15T14:05:14;1;1;
30342;PMS5003;17145;49.902;8.680;2023-04-15T14:07:42;1;1;
30342;PMS5003;17145;49.902;8.680;2023-04-15T14:10:09;2;1;
30342;PMS5003;17145;49.902;8.680;2023-04-15T14:12:37;1;1;
30342;PMS5003;17145;49.902;8.680;2023-04-15T14:15:05;1;1;
30342;PMS5003;17145;49.902;8.680;2023-04-15T14:17:32;1;1;
30342;PMS5003;17145;49.902;8.680;2023-04-15T14:20:00;1;1;
30342;PMS5003;17145;49.902;8.680;2023-04-15T14:22:27;0;0;
30342;PMS5003;17145;49.902;8.680;2023-04-15T14:24:55;1;1;
30342;PMS5003;17145;49.902;8.680;2023-04-15T14:27:22;2;2;
30342;PMS5003;17145;49.902;8.680;2023-04-15T14:29:50;1;1;
30342;PMS5003;17145;49.902;8.680;2023-04-15T14:32:17;1;1;
30342;PMS5003;17145;49.902;8.680;2023-04-15T14:34:44;3;2;
30342;PMS5003;17145;49.902;8.680;2023-04-15T14:37:12;2;2;
30342;PMS5003;17145;49.902;8.680;2023-04-15T14:39:40;2;2;
30342;PMS5003;17145;49.902;8.680;2023-04-15T14:42:08;2;1;
30342;PMS5003;17145;49.902;8.680;2023-04-15T14:44:35;2;2;
30342;PMS5003;17145;49.902;8.680;2023-04-15T14:47:03;2;2;
30342;PMS5003;17145;49.902;8.680;2023-04-15T14:49:30;2;2;
30342;PMS5003;17145;49.902;8.680;2023-04-15T14:51:58;2;1;
30342;PMS5003;17145;49.902;8.680;2023-04-15T14:54:26;1;1;
30342;PMS5003;17145;49.902;8.680;2023-04-15T14:56:53;2;2;
30342;PMS5003;17145;49.902;8.680;2023-04-15T14:59:21;2;2;
30342;PMS5003;17145;49.902;8.680;2023-04-15T15:01:49;2;2;
30342;PMS5003;17145;49.902;8.680;2023-04-15T15:04:17;2;2;
30342;PMS5003;17145;49.902;8.680;2023-04-15T15:06:44;1;1;
30342;PMS5003;17145;49.902;8.680;2023-04-15T15:09:12;1;1;
30342;PMS5003;17145;49.902;8.680;2023-04-15T15:11:40;1;1;
30342;PMS5003;17145;49.902;8.680;2023-04-15T15:14:07;1;1;
30342;PMS5003;17145;49.902;8.680;2023-04-15T15:16:35;2;1;
30342;PMS5003;17145;49.902;8.680;2023-04-15T15:19:03;1;1;
30342;PMS5003;17145;49.902;8.680;2023-04-15T15:21:31;2;1;
30342;PMS5003;17145;49.902;8.680;2023-04-15T15:23:58;2;2;
30342;PMS5003;17145;49.902;8.680;2023-04-15T15:26:25;1;1;
30342;PMS5003;17145;49.902;8.680;2023-04-15T15:28:53;3;2;
30342;PMS5003;17145;49.902;8.680;2023-04-15T15:31:21;1;1;
30342;PMS5003;17145;49.902;8.680;2023-04-15T15:33:48;2;1;
30342;PMS5003;17145;49.902;8.680;2023-04-15T15:36:15;1;1;
30342;PMS5003;17145;49.902;8.680;2023-04-15T15:38:43;2;2;
30342;PMS5003;17145;49.902;8.680;2023-04-15T15:41:11;2;2;
30342;PMS5003;17145;49.902;8.680;2023-04-15T15:43:38;2;2;
30342;PMS5003;17145;49.902;8.680;2023-04-15T15:46:06;1;1;
30342;PMS5003;17145;49.902;8.680;2023-04-15T15:48:33;2;2;
30342;PMS5003;17145;49.902;8.680;2023-04-15T15:51:00;2;2;
30342;PMS5003;17145;49.902;8.680;2023-04-15T15:53:28;1;1;
30342;PMS5003;17145;49.902;8.680;2023-04-15T15:55:56;2;2;
30342;PMS5003;17145;49.902;8.680;2023-04-15T15:58:24;3;2;
30342;PMS5003;17145;49.902;8.680;2023-04-15T16:00:52;2;2;
30342;PMS5003;17145;49.902;8.680;2023-04-15T16:03:19;1;1;
30342;PMS5003;17145;49.902;8.680;2023-04-15T16:05:47;1;1;
30342;PMS5003;17145;49.902;8.680;2023-04-15T16:08:15;1;1;
30342;PMS5003;17145;49.902;8.680;2023-04-15T16:10:42;2;2;
30342;PMS5003;17145;49.902;8.680;2023-04-15T16:13:10;3;2;
30342;PMS5003;17145;49.902;8.680;2023-04-15T16:15:37;2;2;
30342;PMS5003;17145;49.902;8.680;2023-04-15T16:18:05;1;1;
30342;PMS5003;17145;49.902;8.680;2023-04-15T16:20:32;1;1;
30342;PMS5003;17145;49.902;8.680;2023-04-15T16:23:00;1;1;
30342;PMS5003;17145;49.902;8.680;2023-04-15T16:25:36;1;1;
30342;PMS5003;17145;49.902;8.680;2023-04-15T16:28:04;1;1;
30342;PMS5003;17145;49.902;8.680;2023-04-15T16:30:31;3;2;
30342;PMS5003;17145;49.902;8.680;2023-04-15T16:33:01;3;2;
30342;PMS5003;17145;49.902;8.680;2023-04-15T16:35:28;1;1;
30342;PMS5003;17145;49.902;8.680;2023-04-15T16:37:56;3;2;
30342;PMS5003;17145;49.902;8.680;2023-04-15T16:40:23;1;1;
30342;PMS5003;17145;49.902;8.680;2023-04-15T16:42:51;1;1;
30342;PMS5003;17145;49.902;8.680;2023-04-15T16:45:19;3;3;
30342;PMS5003;17145;49.902;8.680;2023-04-15T16:47:46;2;1;
30342;PMS5003;17145;49.902;8.680;2023-04-15T16:50:13;3;2;
30342;PMS5003;17145;49.902;8.680;2023-04-15T16:52:41;2;2;
30342;PMS5003;17145;49.902;8.680;2023-04-15T16:55:09;2;2;
30342;PMS5003;17145;49.902;8.680;2023-04-15T16:57:36;2;1;
30342;PMS5003;17145;49.902;8.680;2023-04-15T17:00:04;2;2;
30342;PMS5003;17145;49.902;8.680;2023-04-15T17:02:32;2;2;
30342;PMS5003;17145;49.902;8.680;2023-04-15T17:05:00;2;2;
30342;PMS5003;17145;49.902;8.680;2023-04-15T17:07:27;2;2;
30342;PMS5003;17145;49.902;8.680;2023-04-15T17:09:54;2;2;
30342;PMS5003;17145;49.902;8.680;2023-04-15T17:12:22;1;1;